sensor_id;sensor_type;location;lat;lon;timestamp;temperature;humidity
25302;DHT22;13243;50.888;4.724;2023-04-06T00:02:09;6.00;99.90
25302;DHT22;13243;50.888;4.724;2023-04-06T00:07:11;5.90;99.90
25302;DHT22;13243;50.888;4.724;2023-04-06T00:12:13;5.90;99.90
25302;DHT22;13243;50.888;4.724;2023-04-06T00:17:15;6.10;99.90
25302;DHT22;13243;50.888;4.724;2023-04-06T00:22:17;6.10;99.90
25302;DHT22;13243;50.888;4.724;2023-04-06T00:27:18;6.10;99.90
25302;DHT22;13243;50.888;4.724;2023-04-06T00:32:21;6.10;99.90
25302;DHT22;13243;50.888;4.724;2023-04-06T00:37:23;6.00;99.90
25302;DHT22;13243;50.888;4.724;2023-04-06T00:42:24;6.00;99.90
25302;DHT22;13243;50.888;4.724;2023-04-06T00:47:28;6.10;99.90
25302;DHT22;13243;50.888;4.724;2023-04-06T00:52:30;6.10;99.90
25302;DHT22;13243;50.888;4.724;2023-04-06T00:57:32;6.20;99.90
25302;DHT22;13243;50.888;4.724;2023-04-06T01:02:33;6.10;99.90
25302;DHT22;13243;50.888;4.724;2023-04-06T01:07:35;6.00;99.90
25302;DHT22;13243;50.888;4.724;2023-04-06T01:12:37;6.00;99.90
25302;DHT22;13243;50.888;4.724;2023-04-06T01:17:40;5.80;99.90
25302;DHT22;13243;50.888;4.724;2023-04-06T01:22:42;5.80;99.90
25302;DHT22;13243;50.888;4.724;2023-04-06T01:27:44;5.90;99.90
25302;DHT22;13243;50.888;4.724;2023-04-06T01:32:47;6.00;99.90
25302;DHT22;13243;50.888;4.724;2023-04-06T01:37:49;6.10;99.90
25302;DHT22;13243;50.888;4.724;2023-04-06T01:42:51;6.30;99.90
25302;DHT22;13243;50.888;4.724;2023-04-06T01:47:52;6.40;99.90
25302;DHT22;13243;50.888;4.724;2023-04-06T01:52:54;6.30;99.90
25302;DHT22;13243;50.888;4.724;2023-04-06T01:57:56;6.50;99.90
25302;DHT22;13243;50.888;4.724;2023-04-06T02:02:58;6.60;99.90
25302;DHT22;13243;50.888;4.724;2023-04-06T02:08:00;6.50;99.90
25302;DHT22;13243;50.888;4.724;2023-04-06T02:13:02;6.60;99.90
25302;DHT22;13243;50.888;4.724;2023-04-06T02:18:04;6.70;99.90
25302;DHT22;13243;50.888;4.724;2023-04-06T02:23:06;6.70;99.90
25302;DHT22;13243;50.888;4.724;2023-04-06T02:28:08;6.40;99.90
25302;DHT22;13243;50.888;4.724;2023-04-06T02:33:10;6.20;99.90
25302;DHT22;13243;50.888;4.724;2023-04-06T02:38:12;6.10;99.90
25302;DHT22;13243;50.888;4.724;2023-04-06T02:43:13;6.20;99.90
25302;DHT22;13243;50.888;4.724;2023-04-06T02:48:16;6.20;99.90
25302;DHT22;13243;50.888;4.724;2023-04-06T02:53:18;6.30;99.90
25302;DHT22;13243;50.888;4.724;2023-04-06T02:58:20;6.40;99.90
25302;DHT22;13243;50.888;4.724;2023-04-06T03:03:22;6.50;99.90
25302;DHT22;13243;50.888;4.724;2023-04-06T03:08:24;6.50;99.90
25302;DHT22;13243;50.888;4.724;2023-04-06T03:13:26;6.50;99.90
25302;DHT22;13243;50.888;4.724;2023-04-06T03:18:28;6.50;99.90
25302;DHT22;13243;50.888;4.724;2023-04-06T03:23:30;6.60;99.90
25302;DHT22;13243;50.888;4.724;2023-04-06T03:28:31;6.50;99.90
25302;DHT22;13243;50.888;4.724;2023-04-06T03:33:33;6.50;99.90
25302;DHT22;13243;50.888;4.724;2023-04-06T03:38:35;6.40;99.90
25302;DHT22;13243;50.888;4.724;2023-04-06T03:43:39;6.50;99.90
25302;DHT22;13243;50.888;4.724;2023-04-06T03:48:41;6.60;99.90
25302;DHT22;13243;50.888;4.724;2023-04-06T03:53:43;6.60;99.90
25302;DHT22;13243;50.888;4.724;2023-04-06T03:58:45;6.50;99.90
25302;DHT22;13243;50.888;4.724;2023-04-06T04:03:47;6.60;99.90
25302;DHT22;13243;50.888;4.724;2023-04-06T04:08:52;6.50;99.90
25302;DHT22;13243;50.888;4.724;2023-04-06T04:13:54;6.60;99.90
25302;DHT22;13243;50.888;4.724;2023-04-06T04:18:56;6.50;99.90
25302;DHT22;13243;50.888;4.724;2023-04-06T04:24:01;6.50;99.90
25302;DHT22;13243;50.888;4.724;2023-04-06T04:29:02;6.50;99.90
25302;DHT22;13243;50.888;4.724;2023-04-06T04:34:04;6.50;99.90
25302;DHT22;13243;50.888;4.724;2023-04-06T04:39:08;6.50;99.90
25302;DHT22;13243;50.888;4.724;2023-04-06T04:44:10;6.60;99.90
25302;DHT22;13243;50.888;4.724;2023-04-06T04:49:12;6.50;99.90
25302;DHT22;13243;50.888;4.724;2023-04-06T04:54:14;6.60;99.90
25302;DHT22;13243;50.888;4.724;2023-04-06T04:59:16;6.70;99.90
25302;DHT22;13243;50.888;4.724;2023-04-06T05:04:18;6.60;99.90
25302;DHT22;13243;50.888;4.724;2023-04-06T05:09:20;6.60;99.90
25302;DHT22;13243;50.888;4.724;2023-04-06T05:14:22;6.70;99.90
25302;DHT22;13243;50.888;4.724;2023-04-06T05:19:24;6.70;99.90
25302;DHT22;13243;50.888;4.724;2023-04-06T05:24:26;6.80;99.90
25302;DHT22;13243;50.888;4.724;2023-04-06T05:29:28;6.80;99.90
25302;DHT22;13243;50.888;4.724;2023-04-06T05:34:30;6.70;99.90
25302;DHT22;13243;50.888;4.724;2023-04-06T05:39:32;6.80;99.90
25302;DHT22;13243;50.888;4.724;2023-04-06T05:44:37;6.80;99.90
25302;DHT22;13243;50.888;4.724;2023-04-06T05:49:38;6.80;99.90
25302;DHT22;13243;50.888;4.724;2023-04-06T05:54:40;7.00;99.90
25302;DHT22;13243;50.888;4.724;2023-04-06T05:59:42;7.10;99.90
25302;DHT22;13243;50.888;4.724;2023-04-06T06:04:44;7.20;99.90
25302;DHT22;13243;50.888;4.724;2023-04-06T06:09:46;7.20;99.90
25302;DHT22;13243;50.888;4.724;2023-04-06T06:14:48;7.20;99.90
25302;DHT22;13243;50.888;4.724;2023-04-06T06:19:50;7.30;99.90
25302;DHT22;13243;50.888;4.724;2023-04-06T06:24:52;7.50;99.90
25302;DHT22;13243;50.888;4.724;2023-04-06T06:29:53;7.50;99.90
25302;DHT22;13243;50.888;4.724;2023-04-06T06:34:55;7.50;99.90
25302;DHT22;13243;50.888;4.724;2023-04-06T06:39:57;7.60;99.90
25302;DHT22;13243;50.888;4.724;2023-04-06T06:44:59;7.70;99.90
25302;DHT22;13243;50.888;4.724;2023-04-06T06:50:01;7.80;99.90
25302;DHT22;13243;50.888;4.724;2023-04-06T06:55:04;7.80;99.90
25302;DHT22;13243;50.888;4.724;2023-04-06T07:00:07;7.80;99.90
25302;DHT22;13243;50.888;4.724;2023-04-06T07:05:11;7.90;99.90
25302;DHT22;13243;50.888;4.724;2023-04-06T07:10:27;7.90;99.90
25302;DHT22;13243;50.888;4.724;2023-04-06T07:15:30;7.90;99.90
25302;DHT22;13243;50.888;4.724;2023-04-06T07:20:31;8.00;99.90
25302;DHT22;13243;50.888;4.724;2023-04-06T07:25:33;8.00;99.90
25302;DHT22;13243;50.888;4.724;2023-04-06T07:30:37;7.90;99.90
25302;DHT22;13243;50.888;4.724;2023-04-06T07:35:39;7.80;99.90
25302;DHT22;13243;50.888;4.724;2023-04-06T07:40:41;7.70;99.90
25302;DHT22;13243;50.888;4.724;2023-04-06T07:45:43;7.80;99.90
25302;DHT22;13243;50.888;4.724;2023-04-06T07:50:45;7.80;99.90
25302;DHT22;13243;50.888;4.724;2023-04-06T07:55:47;7.90;99.90
25302;DHT22;13243;50.888;4.724;2023-04-06T08:00:49;8.00;99.90
25302;DHT22;13243;50.888;4.724;2023-04-06T08:05:54;8.00;99.90
25302;DHT22;13243;50.888;4.724;2023-04-06T08:10:56;8.10;99.90
25302;DHT22;13243;50.888;4.724;2023-04-06T08:16:02;8.20;99.90
25302;DHT22;13243;50.888;4.724;2023-04-06T08:21:04;8.20;99.90
25302;DHT22;13243;50.888;4.724;2023-04-06T08:26:06;8.30;99.90
25302;DHT22;13243;50.888;4.724;2023-04-06T08:31:08;8.40;99.90
25302;DHT22;13243;50.888;4.724;2023-04-06T08:36:12;8.60;99.90
25302;DHT22;13243;50.888;4.724;2023-04-06T08:41:14;8.40;99.90
25302;DHT22;13243;50.888;4.724;2023-04-06T08:46:18;8.50;99.90
25302;DHT22;13243;50.888;4.724;2023-04-06T08:51:22;8.50;99.90
25302;DHT22;13243;50.888;4.724;2023-04-06T08:56:26;8.60;99.90
25302;DHT22;13243;50.888;4.724;2023-04-06T09:01:28;8.70;99.90
25302;DHT22;13243;50.888;4.724;2023-04-06T09:06:31;8.60;99.90
25302;DHT22;13243;50.888;4.724;2023-04-06T09:11:45;8.70;99.90
25302;DHT22;13243;50.888;4.724;2023-04-06T09:16:47;8.70;99.90
25302;DHT22;13243;50.888;4.724;2023-04-06T09:21:49;8.70;99.90
25302;DHT22;13243;50.888;4.724;2023-04-06T09:26:51;8.90;99.90
25302;DHT22;13243;50.888;4.724;2023-04-06T09:32:05;8.80;99.90
25302;DHT22;13243;50.888;4.724;2023-04-06T09:37:17;8.90;99.90
25302;DHT22;13243;50.888;4.724;2023-04-06T09:42:25;8.90;99.90
25302;DHT22;13243;50.888;4.724;2023-04-06T09:47:28;8.90;99.90
25302;DHT22;13243;50.888;4.724;2023-04-06T09:52:36;8.90;99.90
25302;DHT22;13243;50.888;4.724;2023-04-06T10:08:23;8.90;99.90
25302;DHT22;13243;50.888;4.724;2023-04-06T10:13:25;9.00;99.90
25302;DHT22;13243;50.888;4.724;2023-04-06T10:18:28;8.90;99.90
25302;DHT22;13243;50.888;4.724;2023-04-06T10:23:36;9.00;99.90
25302;DHT22;13243;50.888;4.724;2023-04-06T10:28:41;9.00;99.90
25302;DHT22;13243;50.888;4.724;2023-04-06T10:34:00;8.80;99.90
25302;DHT22;13243;50.888;4.724;2023-04-06T10:39:04;8.80;99.90
25302;DHT22;13243;50.888;4.724;2023-04-06T10:44:06;8.80;99.90
25302;DHT22;13243;50.888;4.724;2023-04-06T10:49:12;8.70;99.90
25302;DHT22;13243;50.888;4.724;2023-04-06T10:54:15;8.70;99.90
25302;DHT22;13243;50.888;4.724;2023-04-06T10:59:19;8.90;99.90
25302;DHT22;13243;50.888;4.724;2023-04-06T11:04:22;9.10;99.90
25302;DHT22;13243;50.888;4.724;2023-04-06T11:09:26;8.90;99.90
25302;DHT22;13243;50.888;4.724;2023-04-06T11:14:28;9.00;99.90
25302;DHT22;13243;50.888;4.724;2023-04-06T11:19:31;9.10;99.90
25302;DHT22;13243;50.888;4.724;2023-04-06T11:24:33;9.10;99.90
25302;DHT22;13243;50.888;4.724;2023-04-06T11:29:35;9.00;99.90
25302;DHT22;13243;50.888;4.724;2023-04-06T11:34:39;9.00;99.90
25302;DHT22;13243;50.888;4.724;2023-04-06T11:39:50;8.90;99.90
25302;DHT22;13243;50.888;4.724;2023-04-06T11:44:59;9.00;99.90
25302;DHT22;13243;50.888;4.724;2023-04-06T11:50:09;9.00;99.90
25302;DHT22;13243;50.888;4.724;2023-04-06T11:55:17;9.00;99.90
25302;DHT22;13243;50.888;4.724;2023-04-06T12:00:20;8.90;99.90
25302;DHT22;13243;50.888;4.724;2023-04-06T12:05:22;8.90;99.90
25302;DHT22;13243;50.888;4.724;2023-04-06T12:10:25;9.00;99.90
25302;DHT22;13243;50.888;4.724;2023-04-06T12:15:27;9.00;99.90
25302;DHT22;13243;50.888;4.724;2023-04-06T12:20:29;9.00;99.90
25302;DHT22;13243;50.888;4.724;2023-04-06T12:25:31;9.00;99.90
25302;DHT22;13243;50.888;4.724;2023-04-06T12:30:34;9.20;99.90
25302;DHT22;13243;50.888;4.724;2023-04-06T12:35:37;9.10;99.90
25302;DHT22;13243;50.888;4.724;2023-04-06T12:40:39;9.20;99.90
25302;DHT22;13243;50.888;4.724;2023-04-06T12:45:41;9.90;99.90
25302;DHT22;13243;50.888;4.724;2023-04-06T12:50:43;9.50;99.90
25302;DHT22;13243;50.888;4.724;2023-04-06T12:55:45;9.40;99.90
25302;DHT22;13243;50.888;4.724;2023-04-06T13:00:50;9.20;99.90
25302;DHT22;13243;50.888;4.724;2023-04-06T13:05:52;9.40;99.90
25302;DHT22;13243;50.888;4.724;2023-04-06T13:10:54;9.50;99.90
25302;DHT22;13243;50.888;4.724;2023-04-06T13:16:05;9.40;99.90
25302;DHT22;13243;50.888;4.724;2023-04-06T13:21:07;9.40;99.90
25302;DHT22;13243;50.888;4.724;2023-04-06T13:26:09;9.30;99.90
25302;DHT22;13243;50.888;4.724;2023-04-06T13:31:11;9.10;99.90
25302;DHT22;13243;50.888;4.724;2023-04-06T13:36:13;9.20;99.90
25302;DHT22;13243;50.888;4.724;2023-04-06T13:41:22;9.20;99.90
25302;DHT22;13243;50.888;4.724;2023-04-06T13:46:25;9.10;99.90
25302;DHT22;13243;50.888;4.724;2023-04-06T13:51:29;9.10;99.90
25302;DHT22;13243;50.888;4.724;2023-04-06T13:56:32;9.20;99.90
25302;DHT22;13243;50.888;4.724;2023-04-06T14:01:34;9.10;99.90
25302;DHT22;13243;50.888;4.724;2023-04-06T14:06:36;9.10;99.90
25302;DHT22;13243;50.888;4.724;2023-04-06T14:11:38;9.20;99.90
25302;DHT22;13243;50.888;4.724;2023-04-06T14:16:40;9.20;99.90
25302;DHT22;13243;50.888;4.724;2023-04-06T14:21:45;9.20;99.90
25302;DHT22;13243;50.888;4.724;2023-04-06T14:26:47;9.20;99.90
25302;DHT22;13243;50.888;4.724;2023-04-06T14:31:49;9.30;99.90
25302;DHT22;13243;50.888;4.724;2023-04-06T14:36:51;9.30;99.90
25302;DHT22;13243;50.888;4.724;2023-04-06T14:41:53;9.20;99.90
25302;DHT22;13243;50.888;4.724;2023-04-06T14:46:54;9.30;99.90
25302;DHT22;13243;50.888;4.724;2023-04-06T14:51:57;9.30;99.90
25302;DHT22;13243;50.888;4.724;2023-04-06T14:57:00;9.10;99.90
25302;DHT22;13243;50.888;4.724;2023-04-06T15:02:03;9.20;99.90
25302;DHT22;13243;50.888;4.724;2023-04-06T15:07:05;9.30;99.90
25302;DHT22;13243;50.888;4.724;2023-04-06T15:12:07;9.30;99.90
25302;DHT22;13243;50.888;4.724;2023-04-06T15:17:09;9.40;99.90
25302;DHT22;13243;50.888;4.724;2023-04-06T15:22:11;9.40;99.90
25302;DHT22;13243;50.888;4.724;2023-04-06T15:27:12;9.40;99.90
25302;DHT22;13243;50.888;4.724;2023-04-06T15:32:14;9.60;99.90
25302;DHT22;13243;50.888;4.724;2023-04-06T15:37:16;9.50;99.90
25302;DHT22;13243;50.888;4.724;2023-04-06T15:42:18;9.60;99.90
25302;DHT22;13243;50.888;4.724;2023-04-06T15:47:20;9.60;99.90
25302;DHT22;13243;50.888;4.724;2023-04-06T15:52:22;9.60;99.90
25302;DHT22;13243;50.888;4.724;2023-04-06T15:57:24;9.60;99.90
25302;DHT22;13243;50.888;4.724;2023-04-06T16:02:26;9.80;99.90
25302;DHT22;13243;50.888;4.724;2023-04-06T16:07:29;9.80;99.90
25302;DHT22;13243;50.888;4.724;2023-04-06T16:12:32;9.80;99.90
25302;DHT22;13243;50.888;4.724;2023-04-06T16:17:34;9.80;99.90
25302;DHT22;13243;50.888;4.724;2023-04-06T16:22:36;9.80;99.90
25302;DHT22;13243;50.888;4.724;2023-04-06T16:27:38;9.80;99.90
25302;DHT22;13243;50.888;4.724;2023-04-06T16:32:40;9.90;99.90
25302;DHT22;13243;50.888;4.724;2023-04-06T16:37:43;9.90;99.90
25302;DHT22;13243;50.888;4.724;2023-04-06T16:42:47;9.90;99.90
25302;DHT22;13243;50.888;4.724;2023-04-06T16:47:49;10.00;99.90
25302;DHT22;13243;50.888;4.724;2023-04-06T16:52:51;10.00;99.90
25302;DHT22;13243;50.888;4.724;2023-04-06T16:57:56;10.00;99.90
25302;DHT22;13243;50.888;4.724;2023-04-06T17:02:58;10.10;99.90
25302;DHT22;13243;50.888;4.724;2023-04-06T17:08:00;10.10;99.90
25302;DHT22;13243;50.888;4.724;2023-04-06T17:13:02;10.10;99.90
25302;DHT22;13243;50.888;4.724;2023-04-06T17:18:04;10.10;99.90
25302;DHT22;13243;50.888;4.724;2023-04-06T17:23:06;10.10;99.90
25302;DHT22;13243;50.888;4.724;2023-04-06T17:28:07;10.00;99.90
25302;DHT22;13243;50.888;4.724;2023-04-06T17:33:09;10.10;99.90
25302;DHT22;13243;50.888;4.724;2023-04-06T17:38:11;10.10;99.90
25302;DHT22;13243;50.888;4.724;2023-04-06T17:43:13;10.10;99.90
25302;DHT22;13243;50.888;4.724;2023-04-06T17:48:15;10.10;99.90
25302;DHT22;13243;50.888;4.724;2023-04-06T17:53:17;10.10;99.90
25302;DHT22;13243;50.888;4.724;2023-04-06T17:58:21;10.10;99.90
25302;DHT22;13243;50.888;4.724;2023-04-06T18:03:23;10.20;99.90
25302;DHT22;13243;50.888;4.724;2023-04-06T18:08:25;10.10;99.90
25302;DHT22;13243;50.888;4.724;2023-04-06T18:13:26;10.20;99.90
25302;DHT22;13243;50.888;4.724;2023-04-06T18:18:28;10.20;99.90
25302;DHT22;13243;50.888;4.724;2023-04-06T18:23:31;10.20;99.90
25302;DHT22;13243;50.888;4.724;2023-04-06T18:28:33;10.30;99.90
25302;DHT22;13243;50.888;4.724;2023-04-06T18:33:35;10.30;99.90
25302;DHT22;13243;50.888;4.724;2023-04-06T18:38:45;10.30;99.90
25302;DHT22;13243;50.888;4.724;2023-04-06T18:43:48;10.20;99.90
25302;DHT22;13243;50.888;4.724;2023-04-06T18:48:50;10.20;99.90
25302;DHT22;13243;50.888;4.724;2023-04-06T18:53:52;10.20;99.90
25302;DHT22;13243;50.888;4.724;2023-04-06T18:58:54;10.20;99.90
25302;DHT22;13243;50.888;4.724;2023-04-06T19:03:57;10.20;99.90
25302;DHT22;13243;50.888;4.724;2023-04-06T19:09:01;10.20;99.90
25302;DHT22;13243;50.888;4.724;2023-04-06T19:14:05;10.10;99.90
25302;DHT22;13243;50.888;4.724;2023-04-06T19:19:07;10.10;99.90
25302;DHT22;13243;50.888;4.724;2023-04-06T19:24:13;10.10;99.90
25302;DHT22;13243;50.888;4.724;2023-04-06T19:29:15;10.00;99.90
25302;DHT22;13243;50.888;4.724;2023-04-06T19:34:18;10.10;99.90
25302;DHT22;13243;50.888;4.724;2023-04-06T19:39:19;10.10;99.90
25302;DHT22;13243;50.888;4.724;2023-04-06T19:44:21;10.00;99.90
25302;DHT22;13243;50.888;4.724;2023-04-06T19:49:24;10.00;99.90
25302;DHT22;13243;50.888;4.724;2023-04-06T19:54:28;9.80;99.90
25302;DHT22;13243;50.888;4.724;2023-04-06T19:59:31;9.90;99.90
25302;DHT22;13243;50.888;4.724;2023-04-06T20:04:35;9.90;99.90
25302;DHT22;13243;50.888;4.724;2023-04-06T20:09:37;9.90;99.90
25302;DHT22;13243;50.888;4.724;2023-04-06T20:14:39;10.00;99.90
25302;DHT22;13243;50.888;4.724;2023-04-06T20:19:40;10.00;99.90
25302;DHT22;13243;50.888;4.724;2023-04-06T20:24:42;10.00;99.90
25302;DHT22;13243;50.888;4.724;2023-04-06T20:29:44;10.00;99.90
25302;DHT22;13243;50.888;4.724;2023-04-06T20:34:47;9.90;99.90
25302;DHT22;13243;50.888;4.724;2023-04-06T20:39:49;9.90;99.90
25302;DHT22;13243;50.888;4.724;2023-04-06T20:44:51;9.90;99.90
25302;DHT22;13243;50.888;4.724;2023-04-06T20:49:54;9.90;99.90
25302;DHT22;13243;50.888;4.724;2023-04-06T20:54:56;10.00;99.90
25302;DHT22;13243;50.888;4.724;2023-04-06T20:59:58;9.90;99.90
25302;DHT22;13243;50.888;4.724;2023-04-06T21:05:00;9.90;99.90
25302;DHT22;13243;50.888;4.724;2023-04-06T21:10:02;9.90;99.90
25302;DHT22;13243;50.888;4.724;2023-04-06T21:15:04;9.70;99.90
25302;DHT22;13243;50.888;4.724;2023-04-06T21:20:08;9.80;99.90
25302;DHT22;13243;50.888;4.724;2023-04-06T21:25:10;9.80;99.90
25302;DHT22;13243;50.888;4.724;2023-04-06T21:30:13;9.80;99.90
25302;DHT22;13243;50.888;4.724;2023-04-06T21:35:15;9.70;99.90
25302;DHT22;13243;50.888;4.724;2023-04-06T21:40:18;9.70;99.90
25302;DHT22;13243;50.888;4.724;2023-04-06T21:45:21;9.70;99.90
25302;DHT22;13243;50.888;4.724;2023-04-06T21:50:23;9.60;99.90
25302;DHT22;13243;50.888;4.724;2023-04-06T21:55:24;9.50;99.90
25302;DHT22;13243;50.888;4.724;2023-04-06T22:00:26;9.60;99.90
25302;DHT22;13243;50.888;4.724;2023-04-06T22:05:28;9.60;99.90
25302;DHT22;13243;50.888;4.724;2023-04-06T22:10:30;9.50;99.90
25302;DHT22;13243;50.888;4.724;2023-04-06T22:15:32;9.50;99.90
25302;DHT22;13243;50.888;4.724;2023-04-06T22:20:34;9.40;99.90
25302;DHT22;13243;50.888;4.724;2023-04-06T22:25:36;9.40;99.90
25302;DHT22;13243;50.888;4.724;2023-04-06T22:30:38;9.40;99.90
25302;DHT22;13243;50.888;4.724;2023-04-06T22:35:40;9.30;99.90
25302;DHT22;13243;50.888;4.724;2023-04-06T22:40:42;9.40;99.90
25302;DHT22;13243;50.888;4.724;2023-04-06T22:45:43;9.50;99.90
25302;DHT22;13243;50.888;4.724;2023-04-06T22:50:45;9.40;99.90
25302;DHT22;13243;50.888;4.724;2023-04-06T22:55:47;9.30;99.90
25302;DHT22;13243;50.888;4.724;2023-04-06T23:00:49;9.30;99.90
25302;DHT22;13243;50.888;4.724;2023-04-06T23:05:51;9.30;99.90
25302;DHT22;13243;50.888;4.724;2023-04-06T23:10:52;9.30;99.90
25302;DHT22;13243;50.888;4.724;2023-04-06T23:15:54;9.40;99.90
25302;DHT22;13243;50.888;4.724;2023-04-06T23:20:56;9.40;99.90
25302;DHT22;13243;50.888;4.724;2023-04-06T23:25:58;9.50;99.90
25302;DHT22;13243;50.888;4.724;2023-04-06T23:31:00;9.40;99.90
25302;DHT22;13243;50.888;4.724;2023-04-06T23:36:02;9.40;99.90
25302;DHT22;13243;50.888;4.724;2023-04-06T23:41:04;9.40;99.90
25302;DHT22;13243;50.888;4.724;2023-04-06T23:46:06;9.40;99.90
25302;DHT22;13243;50.888;4.724;2023-04-06T23:51:08;9.40;99.90
25302;DHT22;13243;50.888;4.724;2023-04-06T23:56:09;9.30;99.90
